createdAt,value
2022-11-26T00:00:11.946Z,6.68
2022-11-26T00:01:12.001Z,6.71
2022-11-26T00:02:11.961Z,6.64
2022-11-26T00:03:27.569Z,6.69
2022-11-26T00:04:14.456Z,6.61
2022-11-26T00:05:11.913Z,6.64
2022-11-26T00:06:11.891Z,6.71
2022-11-26T00:07:11.959Z,6.76
2022-11-26T00:08:12.455Z,6.76
2022-11-26T00:09:11.863Z,6.72
2022-11-26T00:10:12.475Z,6.75
2022-11-26T00:11:11.839Z,6.72
2022-11-26T00:12:11.824Z,6.75
2022-11-26T00:13:11.840Z,6.79
2022-11-26T00:14:32.813Z,6.72
2022-11-26T00:15:12.452Z,6.69
2022-11-26T00:16:11.815Z,6.72
2022-11-26T00:17:11.768Z,6.73
2022-11-26T00:18:12.463Z,6.75
2022-11-26T00:19:11.787Z,6.78
2022-11-26T00:20:14.462Z,6.65
2022-11-26T00:21:11.722Z,6.78
2022-11-26T00:22:11.718Z,6.72
2022-11-26T00:23:11.697Z,6.71
2022-11-26T00:24:12.705Z,6.72
2022-11-26T00:25:11.694Z,6.81
2022-11-26T00:26:11.684Z,6.75
2022-11-26T00:27:11.654Z,6.79
2022-11-26T00:28:16.973Z,6.82
2022-11-26T00:29:11.625Z,6.78
2022-11-26T00:30:11.632Z,6.86
2022-11-26T00:31:13.565Z,6.81
2022-11-26T00:32:32.621Z,6.89
2022-11-26T00:33:18.568Z,6.94
2022-11-26T00:34:12.459Z,6.81
2022-11-26T00:35:12.489Z,6.86
2022-11-26T00:36:11.586Z,6.87
2022-11-26T00:37:11.562Z,6.90
2022-11-26T00:38:12.584Z,6.90
2022-11-26T00:39:11.517Z,6.78
2022-11-26T00:40:11.506Z,6.89
2022-11-26T00:41:14.475Z,6.79
2022-11-26T00:42:12.575Z,6.81
2022-11-26T00:43:14.452Z,6.86
2022-11-26T00:44:13.537Z,6.75
2022-11-26T00:45:11.483Z,6.75
2022-11-26T00:46:13.587Z,6.75
2022-11-26T00:47:13.956Z,6.75
2022-11-26T00:48:13.961Z,6.72
2022-11-26T00:49:13.956Z,6.75
2022-11-26T00:50:11.391Z,6.72
2022-11-26T00:51:11.478Z,6.75
2022-11-26T00:52:15.011Z,6.72
2022-11-26T00:53:11.365Z,6.75
2022-11-26T00:54:11.341Z,6.72
2022-11-26T00:55:13.966Z,6.64
2022-11-26T00:56:11.330Z,6.71
2022-11-26T00:57:11.362Z,6.61
2022-11-26T00:58:11.319Z,6.61
2022-11-26T00:59:11.288Z,6.64
2022-11-26T01:00:11.492Z,6.58
2022-11-26T01:01:11.979Z,6.57
2022-11-26T01:02:14.021Z,6.63
2022-11-26T01:03:13.956Z,6.60
2022-11-26T01:04:16.486Z,6.60
2022-11-26T01:05:11.226Z,6.68
2022-11-26T01:06:11.221Z,6.63
2022-11-26T01:07:13.960Z,6.61
2022-11-26T01:08:11.491Z,6.61
2022-11-26T01:09:11.226Z,6.54
2022-11-26T01:10:11.177Z,6.57
2022-11-26T01:11:19.039Z,6.48
2022-11-26T01:12:11.145Z,6.42
2022-11-26T01:13:25.973Z,6.46
2022-11-26T01:14:11.159Z,6.33
2022-11-26T01:15:13.561Z,6.43
2022-11-26T01:16:18.002Z,6.40
2022-11-26T01:17:11.501Z,6.48
2022-11-26T01:18:11.090Z,6.45
2022-11-26T01:19:11.094Z,6.45
2022-11-26T01:20:13.958Z,6.39
2022-11-26T01:21:11.063Z,6.43
2022-11-26T01:22:14.009Z,6.33
2022-11-26T01:23:11.035Z,6.38
2022-11-26T01:24:11.034Z,6.38
2022-11-26T01:25:11.012Z,6.38
2022-11-26T01:26:11.974Z,6.38
2022-11-26T01:27:10.999Z,6.33
2022-11-26T01:28:10.970Z,6.27
2022-11-26T01:29:11.008Z,6.27
2022-11-26T01:30:10.952Z,6.36
2022-11-26T01:31:11.041Z,6.27
2022-11-26T01:32:11.057Z,6.30
2022-11-26T01:33:10.925Z,6.28
2022-11-26T01:34:10.918Z,6.36
2022-11-26T01:35:10.900Z,6.33
2022-11-26T01:36:10.885Z,6.27
2022-11-26T01:37:31.898Z,6.33
2022-11-26T01:38:11.459Z,6.35
2022-11-26T01:39:12.483Z,6.33
2022-11-26T01:40:10.850Z,6.28
2022-11-26T01:41:10.844Z,6.21
2022-11-26T01:42:10.826Z,6.32
2022-11-26T01:43:10.831Z,6.21
2022-11-26T01:44:17.469Z,6.25
2022-11-26T01:45:10.787Z,6.25
2022-11-26T01:46:11.525Z,6.25
2022-11-26T01:47:10.767Z,6.11
2022-11-26T01:48:10.778Z,6.21
2022-11-26T01:49:10.763Z,6.27
2022-11-26T01:50:10.744Z,6.30
2022-11-26T01:51:11.790Z,6.24
2022-11-26T01:52:10.709Z,6.32
2022-11-26T01:53:10.996Z,6.25
2022-11-26T01:54:11.452Z,6.27
2022-11-26T01:55:11.718Z,6.32
2022-11-26T01:56:17.455Z,6.35
2022-11-26T01:57:10.670Z,6.36
2022-11-26T01:58:10.669Z,6.28
2022-11-26T01:59:12.476Z,6.27
2022-11-26T02:00:10.661Z,6.30
2022-11-26T02:01:10.788Z,6.33
2022-11-26T02:02:11.526Z,6.25
2022-11-26T02:03:10.644Z,6.28
2022-11-26T02:04:10.575Z,6.35
2022-11-26T02:05:12.617Z,6.35
2022-11-26T02:06:11.457Z,6.33
2022-11-26T02:07:10.598Z,6.33
2022-11-26T02:08:11.456Z,6.28
2022-11-26T02:09:10.575Z,6.35
2022-11-26T02:10:13.454Z,6.35
2022-11-26T02:11:26.502Z,6.35
2022-11-26T02:12:11.447Z,6.30
2022-11-26T02:13:10.486Z,6.33
2022-11-26T02:14:10.470Z,6.30
2022-11-26T02:15:15.496Z,6.33
2022-11-26T02:16:10.987Z,6.32
2022-11-26T02:17:10.470Z,6.32
2022-11-26T02:18:10.955Z,6.35
2022-11-26T02:19:10.951Z,6.21
2022-11-26T02:20:31.410Z,6.36
2022-11-26T02:21:24.956Z,6.28
2022-11-26T02:22:10.413Z,6.30
2022-11-26T02:23:11.407Z,6.32
2022-11-26T02:24:10.360Z,6.39
2022-11-26T02:25:11.450Z,6.30
2022-11-26T02:26:10.344Z,6.36
2022-11-26T02:27:10.332Z,6.40
2022-11-26T02:28:17.000Z,6.32
2022-11-26T02:29:10.303Z,6.48
2022-11-26T02:30:10.508Z,6.42
2022-11-26T02:31:10.577Z,6.30
2022-11-26T02:32:13.115Z,6.28
2022-11-26T02:33:10.953Z,6.28
2022-11-26T02:34:10.269Z,6.43
2022-11-26T02:35:10.243Z,6.38
2022-11-26T02:36:10.260Z,6.35
2022-11-26T02:37:10.244Z,6.32
2022-11-26T02:38:10.961Z,6.39
2022-11-26T02:39:10.199Z,6.28
2022-11-26T02:40:10.966Z,6.39
2022-11-26T02:41:10.200Z,6.36
2022-11-26T02:42:11.450Z,6.39
2022-11-26T02:43:10.149Z,6.28
2022-11-26T02:44:13.042Z,6.33
2022-11-26T02:45:10.129Z,6.33
2022-11-26T02:46:33.259Z,6.33
2022-11-26T02:47:10.137Z,6.33
2022-11-26T02:48:10.108Z,6.36
2022-11-26T02:49:10.080Z,6.33
2022-11-26T02:50:10.968Z,6.30
2022-11-26T02:51:10.073Z,6.27
2022-11-26T02:52:10.068Z,6.33
2022-11-26T02:53:10.075Z,6.21
2022-11-26T02:54:10.045Z,6.27
2022-11-26T02:55:10.034Z,6.30
2022-11-26T02:56:10.955Z,6.25
2022-11-26T02:57:12.997Z,6.20
2022-11-26T02:58:10.952Z,6.25
2022-11-26T02:59:10.017Z,6.11
2022-11-26T03:00:09.984Z,6.16
2022-11-26T03:01:32.071Z,6.14
2022-11-26T03:02:09.998Z,6.28
2022-11-26T03:03:09.988Z,6.16
2022-11-26T03:04:11.061Z,6.14
2022-11-26T03:05:09.914Z,6.24
2022-11-26T03:06:12.469Z,6.13
2022-11-26T03:07:12.483Z,6.16
2022-11-26T03:08:09.898Z,6.14
2022-11-26T03:09:09.900Z,6.14
2022-11-26T03:10:10.465Z,6.24
2022-11-26T03:11:09.852Z,6.13
2022-11-26T03:12:09.934Z,6.16
2022-11-26T03:13:09.823Z,6.16
2022-11-26T03:14:12.473Z,6.16
2022-11-26T03:15:09.982Z,6.17
2022-11-26T03:16:09.899Z,6.08
2022-11-26T03:17:12.507Z,6.13
2022-11-26T03:18:12.450Z,6.06
2022-11-26T03:19:09.771Z,6.02
2022-11-26T03:20:16.464Z,6.05
2022-11-26T03:21:09.767Z,6.11
2022-11-26T03:22:12.457Z,6.02
2022-11-26T03:23:10.457Z,6.01
2022-11-26T03:24:09.714Z,6.03
2022-11-26T03:25:30.696Z,5.99
2022-11-26T03:26:09.684Z,5.99
2022-11-26T03:27:09.705Z,5.99
2022-11-26T03:28:09.662Z,6.01
2022-11-26T03:29:09.661Z,5.96
2022-11-26T03:30:09.642Z,5.92
2022-11-26T03:31:10.742Z,5.90
2022-11-26T03:32:09.618Z,5.93
2022-11-26T03:33:10.650Z,5.92
2022-11-26T03:34:16.453Z,5.92
2022-11-26T03:35:09.615Z,6.01
2022-11-26T03:36:09.570Z,5.93
2022-11-26T03:37:09.579Z,5.90
2022-11-26T03:38:09.572Z,5.92
2022-11-26T03:39:09.574Z,5.88
2022-11-26T03:40:31.452Z,5.90
2022-11-26T03:41:09.525Z,5.85
2022-11-26T03:42:09.509Z,5.88
2022-11-26T03:43:31.563Z,5.78
2022-11-26T03:44:12.472Z,5.77
2022-11-26T03:45:12.541Z,5.83
2022-11-26T03:46:09.487Z,5.81
2022-11-26T03:47:09.458Z,5.80
2022-11-26T03:48:09.447Z,5.78
2022-11-26T03:49:09.463Z,5.80
2022-11-26T03:50:09.438Z,5.75
2022-11-26T03:51:09.439Z,5.67
2022-11-26T03:52:10.989Z,5.67
2022-11-26T03:53:15.951Z,5.77
2022-11-26T03:54:11.429Z,5.75
2022-11-26T03:55:09.366Z,5.74
2022-11-26T03:56:09.355Z,5.74
2022-11-26T03:57:09.357Z,5.80
2022-11-26T03:58:09.346Z,5.77
2022-11-26T03:59:15.953Z,5.74
2022-11-26T04:00:09.323Z,5.74
2022-11-26T04:01:09.351Z,5.78
2022-11-26T04:02:14.501Z,5.70
2022-11-26T04:03:16.027Z,5.70
2022-11-26T04:04:09.291Z,5.69
2022-11-26T04:05:15.976Z,5.70
2022-11-26T04:06:09.257Z,5.77
2022-11-26T04:07:09.292Z,5.73
2022-11-26T04:08:15.980Z,5.75
2022-11-26T04:09:09.221Z,5.81
2022-11-26T04:10:09.243Z,5.74
2022-11-26T04:11:09.959Z,5.80
2022-11-26T04:12:09.188Z,5.81
2022-11-26T04:13:09.175Z,5.70
2022-11-26T04:14:09.167Z,5.77
2022-11-26T04:15:11.961Z,5.75
2022-11-26T04:16:14.580Z,5.73
2022-11-26T04:17:09.126Z,5.70
2022-11-26T04:18:09.117Z,5.62
2022-11-26T04:19:09.111Z,5.65
2022-11-26T04:20:14.484Z,5.65
2022-11-26T04:21:09.107Z,5.63
2022-11-26T04:22:09.073Z,5.63
2022-11-26T04:23:09.091Z,5.55
2022-11-26T04:24:09.959Z,5.62
2022-11-26T04:25:09.052Z,5.65
2022-11-26T04:26:11.959Z,5.66
2022-11-26T04:27:09.985Z,5.66
2022-11-26T04:28:09.009Z,5.70
2022-11-26T04:29:09.000Z,5.65
2022-11-26T04:30:09.012Z,5.70
2022-11-26T04:31:08.979Z,5.77
2022-11-26T04:32:09.076Z,5.73
2022-11-26T04:33:08.996Z,5.78
2022-11-26T04:34:09.966Z,5.83
2022-11-26T04:35:08.937Z,5.73
2022-11-26T04:36:17.520Z,5.80
2022-11-26T04:37:08.913Z,5.77
2022-11-26T04:38:08.904Z,5.75
2022-11-26T04:39:09.010Z,5.80
2022-11-26T04:40:08.996Z,5.70
2022-11-26T04:41:08.878Z,5.77
2022-11-26T04:42:09.450Z,5.75
2022-11-26T04:43:08.852Z,5.75
2022-11-26T04:44:08.828Z,5.77
2022-11-26T04:45:08.820Z,5.81
2022-11-26T04:46:08.923Z,5.74
2022-11-26T04:47:11.457Z,5.74
2022-11-26T04:48:08.981Z,5.70
2022-11-26T04:49:08.787Z,5.67
2022-11-26T04:50:09.450Z,5.69
2022-11-26T04:51:08.767Z,5.70
2022-11-26T04:52:09.467Z,5.73
2022-11-26T04:53:08.994Z,5.63
2022-11-26T04:54:13.108Z,5.65
2022-11-26T04:55:09.732Z,5.59
2022-11-26T04:56:11.462Z,5.62
2022-11-26T04:57:09.470Z,5.59
2022-11-26T04:58:08.672Z,5.59
2022-11-26T04:59:09.722Z,5.63
2022-11-26T05:00:08.657Z,5.65
2022-11-26T05:01:08.772Z,5.55
2022-11-26T05:02:11.451Z,5.60
2022-11-26T05:03:15.462Z,5.62
2022-11-26T05:04:08.978Z,5.56
2022-11-26T05:05:09.460Z,5.55
2022-11-26T05:06:08.614Z,5.62
2022-11-26T05:07:09.624Z,5.56
2022-11-26T05:08:11.468Z,5.65
2022-11-26T05:09:09.465Z,5.59
2022-11-26T05:10:08.980Z,5.63
2022-11-26T05:11:08.562Z,5.55
2022-11-26T05:12:10.492Z,5.65
2022-11-26T05:13:09.465Z,5.59
2022-11-26T05:14:08.505Z,5.58
2022-11-26T05:15:08.986Z,5.52
2022-11-26T05:16:08.538Z,5.58
2022-11-26T05:17:08.488Z,5.49
2022-11-26T05:18:09.465Z,5.59
2022-11-26T05:19:08.452Z,5.59
2022-11-26T05:20:08.443Z,5.60
2022-11-26T05:21:08.454Z,5.59
2022-11-26T05:22:29.417Z,5.58
2022-11-26T05:23:08.409Z,5.56
2022-11-26T05:24:08.506Z,5.51
2022-11-26T05:25:10.434Z,5.52
2022-11-26T05:26:08.496Z,5.56
2022-11-26T05:27:08.364Z,5.60
2022-11-26T05:28:08.978Z,5.48
2022-11-26T05:29:08.339Z,5.58
2022-11-26T05:30:08.335Z,5.51
2022-11-26T05:31:15.055Z,5.55
2022-11-26T05:32:09.428Z,5.52
2022-11-26T05:33:35.961Z,5.55
2022-11-26T05:34:08.952Z,5.58
2022-11-26T05:35:08.285Z,5.52
2022-11-26T05:36:15.976Z,5.58
2022-11-26T05:37:08.278Z,5.52
2022-11-26T05:38:08.274Z,5.58
2022-11-26T05:39:08.977Z,5.65
2022-11-26T05:40:08.255Z,5.62
2022-11-26T05:41:08.221Z,5.65
2022-11-26T05:42:09.615Z,5.59
2022-11-26T05:43:08.957Z,5.60
2022-11-26T05:44:08.182Z,5.55
2022-11-26T05:45:08.956Z,5.62
2022-11-26T05:46:08.235Z,5.56
2022-11-26T05:47:08.485Z,5.55
2022-11-26T05:48:11.044Z,5.52
2022-11-26T05:49:14.951Z,5.59
2022-11-26T05:50:14.956Z,5.48
2022-11-26T05:51:22.952Z,5.62
2022-11-26T05:52:08.096Z,5.49
2022-11-26T05:53:08.077Z,5.59
2022-11-26T05:54:08.953Z,5.56
2022-11-26T05:55:10.959Z,5.52
2022-11-26T05:56:08.073Z,5.49
2022-11-26T05:57:08.052Z,5.58
2022-11-26T05:58:08.041Z,5.51
2022-11-26T05:59:08.957Z,5.55
2022-11-26T06:00:08.014Z,5.59
2022-11-26T06:01:10.951Z,5.45
2022-11-26T06:02:09.180Z,5.49
2022-11-26T06:03:09.119Z,5.58
2022-11-26T06:04:09.520Z,5.51
2022-11-26T06:05:07.944Z,5.56
2022-11-26T06:06:07.941Z,5.58
2022-11-26T06:07:08.110Z,5.60
2022-11-26T06:08:08.457Z,5.44
2022-11-26T06:09:07.897Z,5.45
2022-11-26T06:10:28.888Z,5.42
2022-11-26T06:11:07.896Z,5.56
2022-11-26T06:12:07.874Z,5.56
2022-11-26T06:13:07.862Z,5.47
2022-11-26T06:14:07.856Z,5.47
2022-11-26T06:15:07.831Z,5.47
2022-11-26T06:16:14.553Z,5.52
2022-11-26T06:17:07.827Z,5.60
2022-11-26T06:18:08.462Z,5.58
2022-11-26T06:19:07.789Z,5.60
2022-11-26T06:20:10.456Z,5.42
2022-11-26T06:21:08.456Z,5.49
2022-11-26T06:22:07.997Z,5.58
2022-11-26T06:23:07.744Z,5.52
2022-11-26T06:24:08.456Z,5.45
2022-11-26T06:25:07.739Z,5.55
2022-11-26T06:26:07.717Z,5.48
2022-11-26T06:27:07.723Z,5.45
2022-11-26T06:28:10.471Z,5.51
2022-11-26T06:29:07.676Z,5.48
2022-11-26T06:30:07.673Z,5.52
2022-11-26T06:31:07.708Z,5.45
2022-11-26T06:32:09.508Z,5.49
2022-11-26T06:33:07.641Z,5.45
2022-11-26T06:34:10.076Z,5.42
2022-11-26T06:35:10.460Z,5.41
2022-11-26T06:36:07.618Z,5.42
2022-11-26T06:37:10.466Z,5.47
2022-11-26T06:38:14.450Z,5.45
2022-11-26T06:39:08.637Z,5.48
2022-11-26T06:40:07.979Z,5.51
2022-11-26T06:41:09.322Z,5.45
2022-11-26T06:42:08.522Z,5.47
2022-11-26T06:43:29.678Z,5.49
2022-11-26T06:44:08.555Z,5.51
2022-11-26T06:45:30.671Z,5.55
2022-11-26T06:46:08.544Z,5.51
2022-11-26T06:47:07.517Z,5.45
2022-11-26T06:48:07.466Z,5.51
2022-11-26T06:49:07.468Z,5.52
2022-11-26T06:50:10.668Z,5.56
2022-11-26T06:51:07.485Z,5.55
2022-11-26T06:52:09.942Z,5.56
2022-11-26T06:53:13.962Z,5.62
2022-11-26T06:54:07.445Z,5.60
2022-11-26T06:55:07.400Z,5.69
2022-11-26T06:56:07.393Z,5.62
2022-11-26T06:57:07.480Z,5.66
2022-11-26T06:58:07.376Z,5.59
2022-11-26T06:59:08.980Z,5.67
2022-11-26T07:00:07.478Z,5.62
2022-11-26T07:01:07.453Z,5.65
2022-11-26T07:02:08.083Z,5.63
2022-11-26T07:03:07.486Z,5.60
2022-11-26T07:04:07.949Z,5.66
2022-11-26T07:05:07.285Z,5.63
2022-11-26T07:06:28.965Z,5.58
2022-11-26T07:07:08.017Z,5.59
2022-11-26T07:08:07.960Z,5.60
2022-11-26T07:09:07.256Z,5.62
2022-11-26T07:10:08.298Z,5.51
2022-11-26T07:11:07.485Z,5.62
2022-11-26T07:12:07.213Z,5.59
2022-11-26T07:13:09.948Z,5.60
2022-11-26T07:14:08.994Z,5.59
2022-11-26T07:15:09.994Z,5.69
2022-11-26T07:16:08.006Z,5.60
2022-11-26T07:17:07.482Z,5.63
2022-11-26T07:18:07.141Z,5.60
2022-11-26T07:19:07.967Z,5.65
2022-11-26T07:20:07.125Z,5.63
2022-11-26T07:21:07.103Z,5.74
2022-11-26T07:22:07.148Z,5.75
2022-11-26T07:23:07.083Z,5.73
2022-11-26T07:24:07.081Z,5.83
2022-11-26T07:25:12.365Z,5.77
2022-11-26T07:26:08.062Z,5.80
2022-11-26T07:27:07.054Z,5.78
2022-11-26T07:28:12.490Z,5.81
2022-11-26T07:29:07.034Z,5.90
2022-11-26T07:30:07.018Z,5.87
2022-11-26T07:31:11.554Z,5.85
2022-11-26T07:32:07.990Z,5.99
2022-11-26T07:33:06.972Z,6.01
2022-11-26T07:34:27.982Z,6.01
2022-11-26T07:35:06.955Z,5.90
2022-11-26T07:36:06.940Z,5.99
2022-11-26T07:37:10.500Z,5.96
2022-11-26T07:38:07.457Z,6.01
2022-11-26T07:39:09.462Z,6.03
2022-11-26T07:40:06.979Z,6.01
2022-11-26T07:41:27.895Z,6.01
2022-11-26T07:42:06.873Z,6.01
2022-11-26T07:43:07.499Z,5.99
2022-11-26T07:44:06.856Z,6.06
2022-11-26T07:45:06.849Z,6.11
2022-11-26T07:46:09.582Z,6.05
2022-11-26T07:47:07.460Z,6.01
2022-11-26T07:48:06.814Z,5.99
2022-11-26T07:49:08.886Z,5.99
2022-11-26T07:50:06.786Z,5.96
2022-11-26T07:51:06.777Z,5.99
2022-11-26T07:52:06.763Z,5.96
2022-11-26T07:53:07.455Z,5.93
2022-11-26T07:54:06.981Z,5.93
2022-11-26T07:55:09.560Z,6.02
2022-11-26T07:56:07.719Z,5.96
2022-11-26T07:57:06.720Z,5.99
2022-11-26T07:58:06.705Z,6.01
2022-11-26T07:59:06.693Z,5.99
2022-11-26T08:00:06.711Z,5.98
2022-11-26T08:01:06.728Z,6.06
2022-11-26T08:02:07.791Z,5.99
2022-11-26T08:03:06.650Z,6.05
2022-11-26T08:04:09.455Z,6.05
2022-11-26T08:05:06.620Z,6.06
2022-11-26T08:06:06.640Z,6.19
2022-11-26T08:07:06.608Z,6.16
2022-11-26T08:08:07.523Z,6.16
2022-11-26T08:09:06.576Z,6.19
2022-11-26T08:10:06.603Z,6.14
2022-11-26T08:11:06.565Z,6.24
2022-11-26T08:12:06.579Z,6.24
2022-11-26T08:13:06.538Z,6.30
2022-11-26T08:14:06.991Z,6.30
2022-11-26T08:15:07.453Z,6.33
2022-11-26T08:16:06.577Z,6.32
2022-11-26T08:17:06.515Z,6.42
2022-11-26T08:18:06.511Z,6.42
2022-11-26T08:19:09.445Z,6.40
2022-11-26T08:20:06.470Z,6.50
2022-11-26T08:21:06.451Z,6.48
2022-11-26T08:22:06.463Z,6.45
2022-11-26T08:23:06.424Z,6.50
2022-11-26T08:24:06.427Z,6.48
2022-11-26T08:25:06.941Z,6.63
2022-11-26T08:26:31.061Z,6.54
2022-11-26T08:27:08.505Z,6.63
2022-11-26T08:28:06.369Z,6.60
2022-11-26T08:29:06.347Z,6.63
2022-11-26T08:30:06.365Z,6.61
2022-11-26T08:31:06.389Z,6.64
2022-11-26T08:32:09.107Z,6.64
2022-11-26T08:33:06.344Z,6.69
2022-11-26T08:34:06.361Z,6.69
2022-11-26T08:35:06.293Z,6.73
2022-11-26T08:36:07.926Z,6.76
2022-11-26T08:37:08.951Z,6.81
2022-11-26T08:38:06.948Z,6.78
2022-11-26T08:39:08.949Z,6.82
2022-11-26T08:40:06.277Z,6.86
2022-11-26T08:41:06.248Z,6.91
2022-11-26T08:42:06.218Z,7.04
2022-11-26T08:43:06.949Z,6.93
2022-11-26T08:44:07.711Z,6.94
2022-11-26T08:45:12.949Z,7.01
2022-11-26T08:46:07.292Z,6.99
2022-11-26T08:47:06.155Z,6.97
2022-11-26T08:48:08.954Z,6.91
2022-11-26T08:49:06.163Z,6.91
2022-11-26T08:50:06.181Z,7.01
2022-11-26T08:51:06.126Z,6.99
2022-11-26T08:52:07.190Z,6.97
2022-11-26T08:53:06.087Z,6.94
2022-11-26T08:54:06.092Z,7.07
2022-11-26T08:55:06.069Z,6.99
2022-11-26T08:56:06.078Z,7.04
2022-11-26T08:57:06.073Z,7.09
2022-11-26T08:58:06.035Z,7.05
2022-11-26T08:59:08.070Z,7.08
2022-11-26T09:00:06.010Z,7.05
2022-11-26T09:01:10.086Z,7.07
2022-11-26T09:02:18.451Z,7.09
2022-11-26T09:03:08.245Z,7.07
2022-11-26T09:04:05.972Z,7.15
2022-11-26T09:05:05.960Z,7.18
2022-11-26T09:06:06.486Z,7.09
2022-11-26T09:07:08.086Z,7.14
2022-11-26T09:08:05.978Z,7.21
2022-11-26T09:09:05.930Z,7.15
2022-11-26T09:10:05.898Z,7.23
2022-11-26T09:11:06.912Z,7.24
2022-11-26T09:12:06.026Z,7.21
2022-11-26T09:13:06.461Z,7.37
2022-11-26T09:14:05.870Z,7.33
2022-11-26T09:15:07.142Z,7.33
2022-11-26T09:16:05.874Z,7.42
2022-11-26T09:17:05.820Z,7.37
2022-11-26T09:18:07.014Z,7.41
2022-11-26T09:19:08.446Z,7.37
2022-11-26T09:20:05.812Z,7.34
2022-11-26T09:21:06.450Z,7.42
2022-11-26T09:22:05.787Z,7.52
2022-11-26T09:23:05.769Z,7.48
2022-11-26T09:24:06.460Z,7.48
2022-11-26T09:25:05.757Z,7.50
2022-11-26T09:26:05.728Z,7.62
2022-11-26T09:27:08.120Z,7.62
2022-11-26T09:28:08.462Z,7.73
2022-11-26T09:29:06.457Z,7.76
2022-11-26T09:30:06.692Z,7.77
2022-11-26T09:31:05.982Z,7.74
2022-11-26T09:32:23.589Z,7.66
2022-11-26T09:33:07.475Z,7.76
2022-11-26T09:34:06.693Z,7.73
2022-11-26T09:35:06.463Z,7.81
2022-11-26T09:36:05.624Z,7.77
2022-11-26T09:37:05.610Z,7.86
2022-11-26T09:38:05.610Z,7.85
2022-11-26T09:39:05.577Z,7.85
2022-11-26T09:40:05.564Z,7.88
2022-11-26T09:41:05.562Z,7.88
2022-11-26T09:42:06.455Z,7.89
2022-11-26T09:43:05.530Z,7.86
2022-11-26T09:44:05.547Z,7.99
2022-11-26T09:45:06.463Z,7.96
2022-11-26T09:46:05.592Z,7.99
2022-11-26T09:47:14.004Z,8.03
2022-11-26T09:48:09.449Z,7.94
2022-11-26T09:49:05.593Z,8.02
2022-11-26T09:50:05.460Z,8.02
2022-11-26T09:51:06.463Z,8.10
2022-11-26T09:52:07.971Z,8.07
2022-11-26T09:53:05.957Z,8.17
2022-11-26T09:54:05.450Z,8.18
2022-11-26T09:55:05.423Z,8.14
2022-11-26T09:56:05.965Z,8.14
2022-11-26T09:57:05.391Z,8.18
2022-11-26T09:58:05.384Z,8.18
2022-11-26T09:59:05.370Z,8.20
2022-11-26T10:00:05.364Z,8.24
2022-11-26T10:01:05.387Z,8.18
2022-11-26T10:02:05.535Z,8.14
2022-11-26T10:03:07.958Z,8.27
2022-11-26T10:04:07.961Z,8.17
2022-11-26T10:05:05.285Z,8.21
2022-11-26T10:06:05.970Z,8.27
2022-11-26T10:07:05.956Z,8.24
2022-11-26T10:08:05.282Z,8.29
2022-11-26T10:09:05.235Z,8.31
2022-11-26T10:10:06.008Z,8.36
2022-11-26T10:11:05.242Z,8.43
2022-11-26T10:12:26.047Z,8.45
2022-11-26T10:13:20.495Z,8.49
2022-11-26T10:14:06.202Z,8.54
2022-11-26T10:15:05.952Z,8.49
2022-11-26T10:16:05.317Z,8.46
2022-11-26T10:17:05.172Z,8.47
2022-11-26T10:18:07.959Z,8.52
2022-11-26T10:19:05.133Z,8.50
2022-11-26T10:20:05.130Z,8.46
2022-11-26T10:21:05.144Z,8.49
2022-11-26T10:22:05.144Z,8.46
2022-11-26T10:23:05.085Z,8.61
2022-11-26T10:24:05.083Z,8.58
2022-11-26T10:25:05.062Z,8.63
2022-11-26T10:26:05.063Z,8.58
2022-11-26T10:27:05.968Z,8.60
2022-11-26T10:28:05.482Z,8.52
2022-11-26T10:29:05.034Z,8.63
2022-11-26T10:30:05.960Z,8.71
2022-11-26T10:31:05.056Z,8.63
2022-11-26T10:32:05.033Z,8.70
2022-11-26T10:33:04.994Z,8.68
2022-11-26T10:34:04.974Z,8.63
2022-11-26T10:35:04.955Z,8.68
2022-11-26T10:36:05.456Z,8.70
2022-11-26T10:37:04.936Z,8.70
2022-11-26T10:38:04.952Z,8.82
2022-11-26T10:39:04.911Z,8.83
2022-11-26T10:40:07.386Z,8.73
2022-11-26T10:41:04.889Z,8.79
2022-11-26T10:42:04.905Z,8.75
2022-11-26T10:43:04.988Z,8.78
2022-11-26T10:44:07.471Z,8.79
2022-11-26T10:45:09.544Z,8.76
2022-11-26T10:46:05.937Z,8.80
2022-11-26T10:47:04.983Z,8.80
2022-11-26T10:48:04.839Z,8.82
2022-11-26T10:49:04.795Z,8.86
2022-11-26T10:50:25.115Z,8.97
2022-11-26T10:51:05.786Z,8.93
2022-11-26T10:52:04.764Z,9.00
2022-11-26T10:53:04.764Z,9.06
2022-11-26T10:54:04.767Z,9.12
2022-11-26T10:55:04.735Z,9.23
2022-11-26T10:56:04.981Z,9.16
2022-11-26T10:57:04.718Z,9.27
2022-11-26T10:58:04.721Z,9.17
2022-11-26T10:59:04.998Z,9.19
2022-11-26T11:00:04.719Z,9.16
2022-11-26T11:01:04.811Z,9.20
2022-11-26T11:02:04.722Z,9.30
2022-11-26T11:03:04.998Z,9.23
2022-11-26T11:04:08.200Z,9.35
2022-11-26T11:05:05.476Z,9.27
2022-11-26T11:06:04.603Z,9.32
2022-11-26T11:07:10.273Z,9.35
2022-11-26T11:08:05.659Z,9.45
2022-11-26T11:09:04.576Z,9.41
2022-11-26T11:10:05.484Z,9.42
2022-11-26T11:11:04.562Z,9.40
2022-11-26T11:12:04.552Z,9.37
2022-11-26T11:13:04.537Z,9.41
2022-11-26T11:14:11.476Z,9.48
2022-11-26T11:15:04.539Z,9.48
2022-11-26T11:16:05.486Z,9.56
2022-11-26T11:17:05.457Z,9.53
2022-11-26T11:18:11.031Z,9.53
2022-11-26T11:19:04.484Z,9.55
2022-11-26T11:20:06.952Z,9.49
2022-11-26T11:21:04.960Z,9.55
2022-11-26T11:22:04.447Z,9.53
2022-11-26T11:23:04.578Z,9.49
2022-11-26T11:24:08.869Z,9.40
2022-11-26T11:25:04.972Z,9.45
2022-11-26T11:26:04.394Z,9.44
2022-11-26T11:27:06.959Z,9.50
2022-11-26T11:28:08.960Z,9.53
2022-11-26T11:29:07.964Z,9.53
2022-11-26T11:30:04.982Z,9.55
2022-11-26T11:31:04.415Z,9.52
2022-11-26T11:32:04.579Z,9.68
2022-11-26T11:33:04.316Z,9.70
2022-11-26T11:34:04.323Z,9.65
2022-11-26T11:35:04.961Z,9.70
2022-11-26T11:36:04.276Z,9.68
2022-11-26T11:37:04.284Z,9.77
2022-11-26T11:38:05.283Z,9.78
2022-11-26T11:39:04.263Z,9.83
2022-11-26T11:40:04.238Z,9.85
2022-11-26T11:41:04.247Z,9.85
2022-11-26T11:42:04.955Z,9.81
2022-11-26T11:43:04.963Z,9.83
2022-11-26T11:44:04.183Z,9.85
2022-11-26T11:45:08.022Z,9.88
2022-11-26T11:46:05.056Z,9.88
2022-11-26T11:47:04.495Z,9.92
2022-11-26T11:48:04.172Z,10.01
2022-11-26T11:49:04.141Z,9.88
2022-11-26T11:50:04.960Z,9.98
2022-11-26T11:51:04.114Z,10.09
2022-11-26T11:52:04.478Z,10.10
2022-11-26T11:53:06.965Z,10.16
2022-11-26T11:54:04.983Z,10.07
2022-11-26T11:55:05.122Z,10.10
2022-11-26T11:56:04.075Z,10.17
2022-11-26T11:57:04.048Z,10.14
2022-11-26T11:58:04.025Z,10.06
2022-11-26T11:59:04.973Z,10.02
2022-11-26T12:00:04.002Z,10.07
2022-11-26T12:01:04.012Z,10.13
2022-11-26T12:02:04.101Z,10.24
2022-11-26T12:03:04.995Z,10.31
2022-11-26T12:04:08.389Z,10.29
2022-11-26T12:05:05.090Z,10.35
2022-11-26T12:06:03.950Z,10.25
2022-11-26T12:07:03.941Z,10.29
2022-11-26T12:08:03.943Z,10.34
2022-11-26T12:09:03.991Z,10.42
2022-11-26T12:10:10.460Z,10.57
2022-11-26T12:11:03.898Z,10.52
2022-11-26T12:12:03.868Z,10.63
2022-11-26T12:13:06.466Z,10.86
2022-11-26T12:14:03.896Z,10.90
2022-11-26T12:15:03.841Z,10.93
2022-11-26T12:16:03.829Z,10.99
2022-11-26T12:17:03.931Z,10.90
2022-11-26T12:18:04.835Z,10.88
2022-11-26T12:19:03.798Z,11.01
2022-11-26T12:20:05.839Z,11.02
2022-11-26T12:21:03.777Z,11.01
2022-11-26T12:22:10.469Z,11.06
2022-11-26T12:23:03.754Z,10.99
2022-11-26T12:24:04.780Z,10.98
2022-11-26T12:25:03.742Z,11.02
2022-11-26T12:26:04.465Z,10.86
2022-11-26T12:27:04.479Z,10.87
2022-11-26T12:28:03.731Z,10.91
2022-11-26T12:29:03.700Z,10.81
2022-11-26T12:30:03.721Z,10.88
2022-11-26T12:31:03.669Z,10.81
2022-11-26T12:32:03.702Z,10.73
2022-11-26T12:33:07.506Z,10.66
2022-11-26T12:34:08.432Z,10.68
2022-11-26T12:35:04.629Z,10.62
2022-11-26T12:36:03.621Z,10.63
2022-11-26T12:37:03.627Z,10.58
2022-11-26T12:38:03.596Z,10.58
2022-11-26T12:39:04.615Z,10.57
2022-11-26T12:40:03.562Z,10.57
2022-11-26T12:41:03.564Z,10.51
2022-11-26T12:42:06.463Z,10.44
2022-11-26T12:43:03.565Z,10.46
2022-11-26T12:44:03.513Z,10.43
2022-11-26T12:45:04.859Z,10.35
2022-11-26T12:46:03.631Z,10.42
2022-11-26T12:47:03.496Z,10.43
2022-11-26T12:48:03.496Z,10.39
2022-11-26T12:49:08.514Z,10.47
2022-11-26T12:50:03.460Z,10.42
2022-11-26T12:51:03.967Z,10.36
2022-11-26T12:52:03.437Z,10.39
2022-11-26T12:53:03.413Z,10.44
2022-11-26T12:54:03.406Z,10.39
2022-11-26T12:55:03.421Z,10.46
2022-11-26T12:56:03.395Z,10.46
2022-11-26T12:57:04.416Z,10.46
2022-11-26T12:58:03.362Z,10.43
2022-11-26T12:59:03.356Z,10.52
2022-11-26T13:00:03.357Z,10.60
2022-11-26T13:01:03.467Z,10.52
2022-11-26T13:02:04.088Z,10.52
2022-11-26T13:03:03.315Z,10.47
2022-11-26T13:04:29.865Z,10.52
2022-11-26T13:05:04.328Z,10.55
2022-11-26T13:06:03.279Z,10.49
2022-11-26T13:07:03.492Z,10.54
2022-11-26T13:08:03.981Z,10.54
2022-11-26T13:09:03.249Z,10.52
2022-11-26T13:10:03.236Z,10.54
2022-11-26T13:11:08.589Z,10.54
2022-11-26T13:12:04.222Z,10.55
2022-11-26T13:13:03.201Z,10.57
2022-11-26T13:14:03.961Z,10.49
2022-11-26T13:15:03.179Z,10.51